createdAt,value
2023-03-26T00:00:53.690Z,3.30
2023-03-26T00:06:44.388Z,2.90
2023-03-26T00:12:11.046Z,2.90
2023-03-26T00:17:39.353Z,3.30
2023-03-26T00:23:06.948Z,3.50
2023-03-26T00:28:31.032Z,3.30
2023-03-26T00:34:05.823Z,3.90
2023-03-26T00:39:50.315Z,3.00
2023-03-26T00:45:27.680Z,3.00
2023-03-26T00:51:16.256Z,2.50
2023-03-26T00:57:11.526Z,3.00
2023-03-26T01:03:53.096Z,3.80
2023-03-26T01:09:33.958Z,3.40
2023-03-26T01:15:08.853Z,3.30
2023-03-26T01:21:04.876Z,3.50
2023-03-26T01:27:41.773Z,2.80
2023-03-26T01:33:37.421Z,4.00
2023-03-26T01:39:52.830Z,4.10
2023-03-26T01:46:02.029Z,3.80
2023-03-26T01:52:20.215Z,4.00
2023-03-26T01:58:36.166Z,4.10
2023-03-26T02:05:02.462Z,4.10
2023-03-26T02:10:31.205Z,3.50
2023-03-26T02:16:41.810Z,4.40
2023-03-26T02:22:41.874Z,3.60
2023-03-26T02:28:40.870Z,3.90
2023-03-26T02:34:57.807Z,3.90
2023-03-26T02:40:29.764Z,4.40
2023-03-26T02:45:50.588Z,4.10
2023-03-26T02:52:05.892Z,4.10
2023-03-26T02:57:33.557Z,3.30
2023-03-26T03:04:17.566Z,4.30
2023-03-26T03:10:44.395Z,3.80
2023-03-26T03:16:45.036Z,3.50
2023-03-26T03:23:19.336Z,5.00
2023-03-26T03:30:11.505Z,4.90
2023-03-26T03:37:03.167Z,4.70
2023-03-26T03:42:57.394Z,4.70
2023-03-26T03:49:51.699Z,4.00
2023-03-26T03:55:58.774Z,3.90
2023-03-26T04:02:53.557Z,3.40
2023-03-26T04:08:26.277Z,3.40
2023-03-26T04:13:58.300Z,3.70
2023-03-26T04:20:18.193Z,4.20
2023-03-26T04:26:00.859Z,4.00
2023-03-26T04:38:02.048Z,3.50
2023-03-26T04:44:04.331Z,3.40
2023-03-26T04:50:28.053Z,3.70
2023-03-26T04:55:54.253Z,3.40
2023-03-26T05:02:12.665Z,3.50
2023-03-26T05:08:12.566Z,3.50
2023-03-26T05:14:06.513Z,3.70
2023-03-26T05:20:04.449Z,3.30
2023-03-26T05:25:46.668Z,3.10
2023-03-26T05:31:53.106Z,2.80
2023-03-26T05:38:33.554Z,3.10
2023-03-26T05:45:00.179Z,3.30
2023-03-26T05:51:50.828Z,3.50
2023-03-26T05:58:41.774Z,3.10
2023-03-26T06:04:56.491Z,3.40
2023-03-26T06:10:53.603Z,2.60
2023-03-26T06:17:23.728Z,3.40
2023-03-26T06:24:22.227Z,3.20
2023-03-26T06:30:31.147Z,6.30
2023-03-26T06:37:31.893Z,4.70
2023-03-26T06:44:19.531Z,3.00
2023-03-26T06:51:05.427Z,3.90
2023-03-26T06:57:25.875Z,3.50
2023-03-26T07:04:12.433Z,4.10
2023-03-26T07:11:13.991Z,4.20
2023-03-26T07:17:26.038Z,4.20
2023-03-26T07:23:48.057Z,3.60
2023-03-26T07:30:33.513Z,4.30
2023-03-26T07:37:25.628Z,3.40
2023-03-26T07:43:53.155Z,4.40
2023-03-26T07:49:30.959Z,10.20
2023-03-26T07:55:14.045Z,3.80
2023-03-26T08:01:53.471Z,3.90
2023-03-26T08:07:31.699Z,5.60
2023-03-26T08:13:20.443Z,3.20
2023-03-26T08:19:17.157Z,3.50
2023-03-26T08:25:19.111Z,3.00
2023-03-26T08:31:21.132Z,3.50
2023-03-26T08:37:50.769Z,3.70
2023-03-26T08:44:22.097Z,3.40
2023-03-26T08:50:41.422Z,4.00
2023-03-26T08:56:46.452Z,3.10
2023-03-26T09:03:29.053Z,3.50
2023-03-26T09:08:59.457Z,3.30
2023-03-26T09:15:20.657Z,3.50
2023-03-26T09:21:43.762Z,3.30
2023-03-26T09:28:15.327Z,3.40
2023-03-26T09:34:49.971Z,3.00
2023-03-26T09:41:16.027Z,2.70
2023-03-26T09:46:37.152Z,3.00
2023-03-26T09:52:39.550Z,3.10
2023-03-26T09:58:09.936Z,3.50
2023-03-26T10:03:29.126Z,2.90
2023-03-26T10:09:27.007Z,2.50
2023-03-26T10:15:25.177Z,3.50
2023-03-26T10:21:55.993Z,3.80
2023-03-26T10:27:54.660Z,3.30
2023-03-26T10:34:10.668Z,3.10
2023-03-26T10:40:48.125Z,3.30
2023-03-26T10:46:27.599Z,2.20
2023-03-26T10:51:58.398Z,2.20
2023-03-26T10:57:37.442Z,2.70
2023-03-26T11:03:30.998Z,2.40
2023-03-26T11:09:54.909Z,2.50
2023-03-26T11:16:25.357Z,3.30
2023-03-26T11:22:21.226Z,2.40
2023-03-26T11:28:20.896Z,2.40
2023-03-26T11:33:49.195Z,2.10
2023-03-26T11:39:32.346Z,2.50
2023-03-26T11:45:18.694Z,2.30
2023-03-26T11:51:24.563Z,1.70
2023-03-26T11:57:06.062Z,2.20
2023-03-26T12:03:23.383Z,1.50
2023-03-26T12:08:41.533Z,2.10
2023-03-26T12:14:58.214Z,2.10
2023-03-26T12:20:46.654Z,2.30
2023-03-26T12:26:54.411Z,2.00
2023-03-26T12:32:16.982Z,2.40
2023-03-26T12:37:43.924Z,2.50
2023-03-26T12:44:50.125Z,2.50
2023-03-26T12:48:26.561Z,2.30
2023-03-26T12:54:02.346Z,2.30
2023-03-26T12:59:25.919Z,2.70
2023-03-26T13:05:05.102Z,2.30
2023-03-26T13:10:50.925Z,3.20
2023-03-26T13:16:03.495Z,2.60
2023-03-26T13:21:11.793Z,2.50
2023-03-26T13:26:35.284Z,2.30
2023-03-26T13:32:08.372Z,2.50
2023-03-26T13:37:28.072Z,2.60
2023-03-26T13:43:40.481Z,2.30
2023-03-26T13:48:59.787Z,2.70
2023-03-26T13:54:16.085Z,2.80
2023-03-26T13:59:30.050Z,3.30
2023-03-26T14:05:05.132Z,2.80
2023-03-26T14:10:55.532Z,2.40
2023-03-26T14:17:01.200Z,2.60
2023-03-26T14:23:09.242Z,2.40
2023-03-26T14:28:24.530Z,2.90
2023-03-26T14:33:38.722Z,2.10
2023-03-26T14:39:21.228Z,2.80
2023-03-26T14:45:09.161Z,2.70
2023-03-26T14:56:15.658Z,2.50
2023-03-26T15:01:25.538Z,3.10
2023-03-26T15:07:12.495Z,3.00
2023-03-26T15:12:42.839Z,2.20
2023-03-26T15:18:23.027Z,2.20
2023-03-26T15:23:34.054Z,2.80
2023-03-26T15:29:24.845Z,3.40
2023-03-26T15:34:50.675Z,2.90
2023-03-26T15:45:57.544Z,2.90
2023-03-26T15:52:00.294Z,2.80
2023-03-26T15:57:26.445Z,3.50
2023-03-26T16:02:38.502Z,2.10
2023-03-26T16:08:21.033Z,2.10
2023-03-26T16:14:08.913Z,2.50
2023-03-26T16:19:22.730Z,3.10
2023-03-26T16:25:26.579Z,2.90
2023-03-26T16:31:39.570Z,3.80
2023-03-26T16:36:49.386Z,4.50
2023-03-26T16:42:06.226Z,4.50
2023-03-26T16:48:11.114Z,4.10
2023-03-26T16:54:54.796Z,5.00
2023-03-26T17:01:28.749Z,6.10
2023-03-26T17:06:53.552Z,5.10
2023-03-26T17:12:55.089Z,4.90
2023-03-26T17:19:19.123Z,3.50
2023-03-26T17:24:43.832Z,3.70
2023-03-26T17:30:27.093Z,3.00
2023-03-26T17:35:49.461Z,2.90
2023-03-26T17:41:01.407Z,4.20
2023-03-26T17:46:44.764Z,2.60
2023-03-26T17:52:16.635Z,3.00
2023-03-26T17:58:25.461Z,3.30
2023-03-26T18:04:07.749Z,3.50
2023-03-26T18:09:38.556Z,2.60
2023-03-26T18:15:25.198Z,3.20
2023-03-26T18:20:31.519Z,3.30
2023-03-26T18:25:34.700Z,3.60
2023-03-26T18:30:47.827Z,3.70
2023-03-26T18:35:58.342Z,4.50
2023-03-26T18:41:05.607Z,3.90
2023-03-26T18:46:12.520Z,4.60
2023-03-26T18:51:23.360Z,3.30
2023-03-26T18:56:36.221Z,3.90
2023-03-26T19:01:38.507Z,4.40
2023-03-26T19:06:48.831Z,4.00
2023-03-26T19:11:58.062Z,4.00
2023-03-26T19:18:05.383Z,4.60
2023-03-26T19:24:32.346Z,4.70
2023-03-26T19:29:54.700Z,3.70
2023-03-26T19:35:02.495Z,4.40
2023-03-26T19:40:34.447Z,4.40
2023-03-26T19:46:54.014Z,4.80
2023-03-26T19:52:32.327Z,4.40
2023-03-26T19:57:48.187Z,4.70
2023-03-26T20:03:04.103Z,6.10
2023-03-26T20:08:40.522Z,6.70
2023-03-26T20:13:44.439Z,9.20
2023-03-26T20:19:48.250Z,9.80
2023-03-26T20:25:20.299Z,10.50
2023-03-26T20:30:37.327Z,11.10
2023-03-26T20:35:53.485Z,8.50
2023-03-26T20:41:16.831Z,9.90
2023-03-26T20:46:40.132Z,11.50
2023-03-26T20:52:07.378Z,10.80
2023-03-26T20:57:29.058Z,10.90
2023-03-26T21:02:42.005Z,11.60
2023-03-26T21:08:04.025Z,10.40
2023-03-26T21:13:28.342Z,9.50
2023-03-26T21:18:35.074Z,9.10
2023-03-26T21:24:04.586Z,7.90
2023-03-26T21:29:16.833Z,8.10
2023-03-26T21:34:19.861Z,8.80
2023-03-26T21:39:25.274Z,8.40
2023-03-26T21:44:28.689Z,8.80
2023-03-26T21:49:46.497Z,8.10
2023-03-26T21:55:04.082Z,7.30
2023-03-26T22:00:28.231Z,6.90
2023-03-26T22:06:10.946Z,8.00
2023-03-26T22:12:23.655Z,11.40
2023-03-26T22:18:37.407Z,12.00
2023-03-26T22:24:08.355Z,12.60
2023-03-26T22:30:22.839Z,15.00
2023-03-26T22:35:45.647Z,20.10
2023-03-26T22:40:59.062Z,21.60
2023-03-26T22:46:32.499Z,20.90
2023-03-26T22:52:13.008Z,24.00
2023-03-26T22:57:43.937Z,25.20
2023-03-26T23:02:52.796Z,23.00
2023-03-26T23:08:26.732Z,23.50
2023-03-26T23:14:11.018Z,22.10
2023-03-26T23:19:33.121Z,24.00
2023-03-26T23:25:25.281Z,23.80
2023-03-26T23:30:57.233Z,17.00
2023-03-26T23:36:33.883Z,13.70
2023-03-26T23:42:04.710Z,13.60
2023-03-26T23:47:52.646Z,12.40
2023-03-26T23:53:28.495Z,14.80
2023-03-26T23:59:41.412Z,14.00
